sensor_id;sensor_type;location;lat;lon;timestamp;P1;durP1;ratioP1;P2;durP2;ratioP2
27293;SDS011;14785;52.556;13.430;2024-03-02T00:00:00;106.20;;;77.70;;
27293;SDS011;14785;52.556;13.430;2024-03-02T00:02:27;104.40;;;81.47;;
27293;SDS011;14785;52.556;13.430;2024-03-02T00:04:53;109.00;;;84.55;;
27293;SDS011;14785;52.556;13.430;2024-03-02T00:07:19;110.00;;;86.27;;
27293;SDS011;14785;52.556;13.430;2024-03-02T00:09:45;111.90;;;83.57;;
27293;SDS011;14785;52.556;13.430;2024-03-02T00:14:42;117.00;;;86.07;;
27293;SDS011;14785;52.556;13.430;2024-03-02T00:17:09;119.77;;;84.60;;
27293;SDS011;14785;52.556;13.430;2024-03-02T00:19:49;117.78;;;82.28;;
27293;SDS011;14785;52.556;13.430;2024-03-02T00:22:16;114.23;;;83.30;;
27293;SDS011;14785;52.556;13.430;2024-03-02T00:24:41;111.78;;;83.25;;
27293;SDS011;14785;52.556;13.430;2024-03-02T00:27:08;115.45;;;80.28;;
27293;SDS011;14785;52.556;13.430;2024-03-02T00:29:40;106.90;;;76.10;;
27293;SDS011;14785;52.556;13.430;2024-03-02T00:32:12;111.32;;;81.50;;
27293;SDS011;14785;52.556;13.430;2024-03-02T00:34:38;105.25;;;75.93;;
27293;SDS011;14785;52.556;13.430;2024-03-02T00:37:04;97.57;;;74.40;;
27293;SDS011;14785;52.556;13.430;2024-03-02T00:39:29;85.80;;;64.77;;
27293;SDS011;14785;52.556;13.430;2024-03-02T00:41:55;106.50;;;77.60;;
27293;SDS011;14785;52.556;13.430;2024-03-02T00:44:20;101.07;;;76.63;;
27293;SDS011;14785;52.556;13.430;2024-03-02T00:46:51;96.75;;;74.28;;
27293;SDS011;14785;52.556;13.430;2024-03-02T00:51:47;98.43;;;72.47;;
27293;SDS011;14785;52.556;13.430;2024-03-02T00:54:14;86.85;;;66.95;;
27293;SDS011;14785;52.556;13.430;2024-03-02T00:56:44;86.95;;;65.68;;
27293;SDS011;14785;52.556;13.430;2024-03-02T00:59:10;89.87;;;67.77;;
27293;SDS011;14785;52.556;13.430;2024-03-02T01:01:35;84.20;;;66.03;;
27293;SDS011;14785;52.556;13.430;2024-03-02T01:04:01;90.07;;;69.00;;
27293;SDS011;14785;52.556;13.430;2024-03-02T01:06:26;93.87;;;78.00;;
27293;SDS011;14785;52.556;13.430;2024-03-02T01:08:52;86.30;;;68.43;;
27293;SDS011;14785;52.556;13.430;2024-03-02T01:11:20;82.40;;;67.43;;
27293;SDS011;14785;52.556;13.430;2024-03-02T01:13:48;92.88;;;71.88;;
27293;SDS011;14785;52.556;13.430;2024-03-02T01:16:14;86.77;;;69.67;;
27293;SDS011;14785;52.556;13.430;2024-03-02T01:18:40;98.88;;;77.05;;
27293;SDS011;14785;52.556;13.430;2024-03-02T01:21:06;94.28;;;73.03;;
27293;SDS011;14785;52.556;13.430;2024-03-02T01:23:31;82.37;;;66.73;;
27293;SDS011;14785;52.556;13.430;2024-03-02T01:25:57;104.27;;;77.20;;
27293;SDS011;14785;52.556;13.430;2024-03-02T01:28:22;106.03;;;78.97;;
27293;SDS011;14785;52.556;13.430;2024-03-02T01:30:48;86.40;;;74.73;;
27293;SDS011;14785;52.556;13.430;2024-03-02T01:33:14;96.63;;;78.22;;
27293;SDS011;14785;52.556;13.430;2024-03-02T01:38:07;82.95;;;62.45;;
27293;SDS011;14785;52.556;13.430;2024-03-02T01:43:03;110.65;;;84.10;;
27293;SDS011;14785;52.556;13.430;2024-03-02T01:45:29;104.15;;;83.45;;
27293;SDS011;14785;52.556;13.430;2024-03-02T01:47:54;103.10;;;81.43;;
27293;SDS011;14785;52.556;13.430;2024-03-02T01:50:27;92.53;;;73.57;;
27293;SDS011;14785;52.556;13.430;2024-03-02T01:52:59;97.70;;;73.18;;
27293;SDS011;14785;52.556;13.430;2024-03-02T01:55:25;98.55;;;77.53;;
27293;SDS011;14785;52.556;13.430;2024-03-02T01:57:52;122.40;;;85.95;;
27293;SDS011;14785;52.556;13.430;2024-03-02T02:00:19;96.78;;;70.30;;
27293;SDS011;14785;52.556;13.430;2024-03-02T02:02:46;112.70;;;81.70;;
27293;SDS011;14785;52.556;13.430;2024-03-02T02:05:12;114.60;;;82.80;;
27293;SDS011;14785;52.556;13.430;2024-03-02T02:07:39;111.35;;;80.43;;
27293;SDS011;14785;52.556;13.430;2024-03-02T02:10:06;100.32;;;72.13;;
27293;SDS011;14785;52.556;13.430;2024-03-02T02:12:33;91.65;;;68.63;;
27293;SDS011;14785;52.556;13.430;2024-03-02T02:15:00;90.20;;;68.78;;
27293;SDS011;14785;52.556;13.430;2024-03-02T02:17:25;96.33;;;72.80;;
27293;SDS011;14785;52.556;13.430;2024-03-02T02:19:52;96.20;;;73.35;;
27293;SDS011;14785;52.556;13.430;2024-03-02T02:22:17;103.17;;;76.60;;
27293;SDS011;14785;52.556;13.430;2024-03-02T02:24:43;95.30;;;74.80;;
27293;SDS011;14785;52.556;13.430;2024-03-02T02:27:09;99.22;;;74.93;;
27293;SDS011;14785;52.556;13.430;2024-03-02T02:29:35;91.38;;;73.97;;
27293;SDS011;14785;52.556;13.430;2024-03-02T02:32:02;77.55;;;63.25;;
27293;SDS011;14785;52.556;13.430;2024-03-02T02:34:28;92.13;;;67.63;;
27293;SDS011;14785;52.556;13.430;2024-03-02T02:36:54;105.25;;;83.28;;
27293;SDS011;14785;52.556;13.430;2024-03-02T02:39:20;92.78;;;72.30;;
27293;SDS011;14785;52.556;13.430;2024-03-02T02:41:47;93.15;;;72.97;;
27293;SDS011;14785;52.556;13.430;2024-03-02T02:44:13;99.70;;;75.73;;
27293;SDS011;14785;52.556;13.430;2024-03-02T02:46:39;100.53;;;81.00;;
27293;SDS011;14785;52.556;13.430;2024-03-02T02:49:05;93.82;;;75.05;;
27293;SDS011;14785;52.556;13.430;2024-03-02T02:51:30;95.87;;;77.97;;
27293;SDS011;14785;52.556;13.430;2024-03-02T02:53:56;93.03;;;73.50;;
27293;SDS011;14785;52.556;13.430;2024-03-02T02:56:21;109.37;;;92.10;;
27293;SDS011;14785;52.556;13.430;2024-03-02T02:58:49;96.93;;;76.38;;
27293;SDS011;14785;52.556;13.430;2024-03-02T03:01:15;106.37;;;81.60;;
27293;SDS011;14785;52.556;13.430;2024-03-02T03:03:44;90.72;;;69.63;;
27293;SDS011;14785;52.556;13.430;2024-03-02T03:06:10;105.78;;;80.05;;
27293;SDS011;14785;52.556;13.430;2024-03-02T03:08:36;115.10;;;96.65;;
27293;SDS011;14785;52.556;13.430;2024-03-02T03:11:03;114.47;;;84.03;;
27293;SDS011;14785;52.556;13.430;2024-03-02T03:13:33;111.50;;;83.60;;
27293;SDS011;14785;52.556;13.430;2024-03-02T03:15:59;113.20;;;82.13;;
27293;SDS011;14785;52.556;13.430;2024-03-02T03:18:25;152.03;;;135.63;;
27293;SDS011;14785;52.556;13.430;2024-03-02T03:20:50;163.13;;;146.43;;
27293;SDS011;14785;52.556;13.430;2024-03-02T03:25:42;110.10;;;85.32;;
27293;SDS011;14785;52.556;13.430;2024-03-02T03:28:08;120.18;;;87.82;;
27293;SDS011;14785;52.556;13.430;2024-03-02T03:30:37;106.55;;;81.30;;
27293;SDS011;14785;52.556;13.430;2024-03-02T03:33:04;105.97;;;77.25;;
27293;SDS011;14785;52.556;13.430;2024-03-02T03:35:32;127.90;;;105.70;;
27293;SDS011;14785;52.556;13.430;2024-03-02T03:37:58;97.07;;;75.67;;
27293;SDS011;14785;52.556;13.430;2024-03-02T03:40:24;102.10;;;76.33;;
27293;SDS011;14785;52.556;13.430;2024-03-02T03:42:52;107.45;;;83.80;;
27293;SDS011;14785;52.556;13.430;2024-03-02T03:45:18;110.53;;;89.72;;
27293;SDS011;14785;52.556;13.430;2024-03-02T03:47:43;109.23;;;86.47;;
27293;SDS011;14785;52.556;13.430;2024-03-02T03:50:09;96.33;;;77.53;;
27293;SDS011;14785;52.556;13.430;2024-03-02T03:52:34;106.43;;;84.40;;
27293;SDS011;14785;52.556;13.430;2024-03-02T03:55:00;99.10;;;77.17;;
27293;SDS011;14785;52.556;13.430;2024-03-02T03:57:26;109.33;;;84.07;;
27293;SDS011;14785;52.556;13.430;2024-03-02T03:59:51;96.45;;;77.10;;
27293;SDS011;14785;52.556;13.430;2024-03-02T04:02:17;105.07;;;78.67;;
27293;SDS011;14785;52.556;13.430;2024-03-02T04:04:42;87.93;;;72.27;;
27293;SDS011;14785;52.556;13.430;2024-03-02T04:07:08;93.53;;;72.85;;
27293;SDS011;14785;52.556;13.430;2024-03-02T04:09:34;90.87;;;70.37;;
27293;SDS011;14785;52.556;13.430;2024-03-02T04:11:59;88.27;;;72.87;;
27293;SDS011;14785;52.556;13.430;2024-03-02T04:14:24;101.10;;;76.70;;
27293;SDS011;14785;52.556;13.430;2024-03-02T04:16:50;94.70;;;69.10;;
27293;SDS011;14785;52.556;13.430;2024-03-02T04:19:18;97.47;;;74.30;;
27293;SDS011;14785;52.556;13.430;2024-03-02T04:21:43;87.35;;;68.85;;
27293;SDS011;14785;52.556;13.430;2024-03-02T04:24:09;87.03;;;71.07;;
27293;SDS011;14785;52.556;13.430;2024-03-02T04:26:34;90.67;;;71.50;;
27293;SDS011;14785;52.556;13.430;2024-03-02T04:28:59;91.10;;;73.23;;
27293;SDS011;14785;52.556;13.430;2024-03-02T04:31:25;81.43;;;65.30;;
27293;SDS011;14785;52.556;13.430;2024-03-02T04:33:50;87.20;;;71.23;;
27293;SDS011;14785;52.556;13.430;2024-03-02T04:36:16;92.33;;;72.50;;
27293;SDS011;14785;52.556;13.430;2024-03-02T04:38:41;80.97;;;69.57;;
27293;SDS011;14785;52.556;13.430;2024-03-02T04:41:06;87.20;;;70.07;;
27293;SDS011;14785;52.556;13.430;2024-03-02T04:43:32;89.03;;;71.35;;
27293;SDS011;14785;52.556;13.430;2024-03-02T04:45:58;92.75;;;74.70;;
27293;SDS011;14785;52.556;13.430;2024-03-02T04:48:24;82.18;;;66.10;;
27293;SDS011;14785;52.556;13.430;2024-03-02T04:50:50;99.73;;;75.73;;
27293;SDS011;14785;52.556;13.430;2024-03-02T04:53:16;87.93;;;67.93;;
27293;SDS011;14785;52.556;13.430;2024-03-02T04:55:42;82.47;;;64.67;;
27293;SDS011;14785;52.556;13.430;2024-03-02T04:58:07;83.50;;;71.53;;
27293;SDS011;14785;52.556;13.430;2024-03-02T05:00:33;87.43;;;69.00;;
27293;SDS011;14785;52.556;13.430;2024-03-02T05:02:59;82.75;;;65.05;;
27293;SDS011;14785;52.556;13.430;2024-03-02T05:05:24;91.73;;;72.63;;
27293;SDS011;14785;52.556;13.430;2024-03-02T05:07:51;80.55;;;66.13;;
27293;SDS011;14785;52.556;13.430;2024-03-02T05:10:16;78.87;;;61.67;;
27293;SDS011;14785;52.556;13.430;2024-03-02T05:12:43;84.03;;;67.15;;
27293;SDS011;14785;52.556;13.430;2024-03-02T05:15:09;90.87;;;70.47;;
27293;SDS011;14785;52.556;13.430;2024-03-02T05:17:36;100.60;;;73.97;;
27293;SDS011;14785;52.556;13.430;2024-03-02T05:22:30;94.28;;;74.90;;
27293;SDS011;14785;52.556;13.430;2024-03-02T05:24:56;100.60;;;80.18;;
27293;SDS011;14785;52.556;13.430;2024-03-02T05:27:24;82.30;;;69.30;;
27293;SDS011;14785;52.556;13.430;2024-03-02T05:29:49;99.30;;;75.77;;
27293;SDS011;14785;52.556;13.430;2024-03-02T05:32:14;84.73;;;69.47;;
27293;SDS011;14785;52.556;13.430;2024-03-02T05:34:41;101.25;;;79.32;;
27293;SDS011;14785;52.556;13.430;2024-03-02T05:37:07;100.73;;;79.57;;
27293;SDS011;14785;52.556;13.430;2024-03-02T05:39:33;96.95;;;78.05;;
27293;SDS011;14785;52.556;13.430;2024-03-02T05:41:59;97.60;;;80.57;;
27293;SDS011;14785;52.556;13.430;2024-03-02T05:44:25;104.77;;;89.93;;
27293;SDS011;14785;52.556;13.430;2024-03-02T05:49:18;106.55;;;92.15;;
27293;SDS011;14785;52.556;13.430;2024-03-02T05:51:44;110.13;;;96.70;;
27293;SDS011;14785;52.556;13.430;2024-03-02T05:54:09;111.20;;;93.60;;
27293;SDS011;14785;52.556;13.430;2024-03-02T05:56:35;104.33;;;89.40;;
27293;SDS011;14785;52.556;13.430;2024-03-02T05:59:04;117.78;;;95.30;;
27293;SDS011;14785;52.556;13.430;2024-03-02T06:01:42;117.38;;;88.38;;
27293;SDS011;14785;52.556;13.430;2024-03-02T06:04:09;101.35;;;78.85;;
27293;SDS011;14785;52.556;13.430;2024-03-02T06:06:38;98.25;;;77.40;;
27293;SDS011;14785;52.556;13.430;2024-03-02T06:09:04;107.82;;;86.05;;
27293;SDS011;14785;52.556;13.430;2024-03-02T06:11:41;111.47;;;81.20;;
27293;SDS011;14785;52.556;13.430;2024-03-02T06:14:07;107.57;;;94.00;;
27293;SDS011;14785;52.556;13.430;2024-03-02T06:16:33;103.90;;;79.40;;
27293;SDS011;14785;52.556;13.430;2024-03-02T06:18:59;117.75;;;90.78;;
27293;SDS011;14785;52.556;13.430;2024-03-02T06:21:25;113.38;;;83.65;;
27293;SDS011;14785;52.556;13.430;2024-03-02T06:23:52;109.57;;;91.97;;
27293;SDS011;14785;52.556;13.430;2024-03-02T06:26:18;124.53;;;91.47;;
27293;SDS011;14785;52.556;13.430;2024-03-02T06:28:43;107.00;;;84.03;;
27293;SDS011;14785;52.556;13.430;2024-03-02T06:31:09;116.70;;;85.23;;
27293;SDS011;14785;52.556;13.430;2024-03-02T06:33:34;99.80;;;81.10;;
27293;SDS011;14785;52.556;13.430;2024-03-02T06:36:00;129.30;;;94.00;;
27293;SDS011;14785;52.556;13.430;2024-03-02T06:38:26;109.68;;;85.65;;
27293;SDS011;14785;52.556;13.430;2024-03-02T06:40:52;111.23;;;97.13;;
27293;SDS011;14785;52.556;13.430;2024-03-02T06:43:17;116.50;;;88.07;;
27293;SDS011;14785;52.556;13.430;2024-03-02T06:45:42;112.63;;;90.23;;
27293;SDS011;14785;52.556;13.430;2024-03-02T06:48:08;115.13;;;95.10;;
27293;SDS011;14785;52.556;13.430;2024-03-02T06:50:33;118.73;;;87.70;;
27293;SDS011;14785;52.556;13.430;2024-03-02T06:52:59;121.07;;;89.55;;
27293;SDS011;14785;52.556;13.430;2024-03-02T06:55:25;122.90;;;89.37;;
27293;SDS011;14785;52.556;13.430;2024-03-02T07:00:17;112.43;;;79.82;;
27293;SDS011;14785;52.556;13.430;2024-03-02T07:02:43;120.45;;;87.15;;
27293;SDS011;14785;52.556;13.430;2024-03-02T07:05:09;104.68;;;84.78;;
27293;SDS011;14785;52.556;13.430;2024-03-02T07:07:35;113.72;;;96.28;;
27293;SDS011;14785;52.556;13.430;2024-03-02T07:10:01;117.78;;;97.22;;
27293;SDS011;14785;52.556;13.430;2024-03-02T07:12:28;130.25;;;106.13;;
27293;SDS011;14785;52.556;13.430;2024-03-02T07:14:53;121.33;;;86.50;;
27293;SDS011;14785;52.556;13.430;2024-03-02T07:19:57;128.00;;;89.28;;
27293;SDS011;14785;52.556;13.430;2024-03-02T07:22:23;116.38;;;83.38;;
27293;SDS011;14785;52.556;13.430;2024-03-02T07:24:49;108.07;;;82.32;;
27293;SDS011;14785;52.556;13.430;2024-03-02T07:27:15;105.27;;;83.67;;
27293;SDS011;14785;52.556;13.430;2024-03-02T07:29:42;123.53;;;95.47;;
27293;SDS011;14785;52.556;13.430;2024-03-02T07:32:09;137.10;;;100.45;;
27293;SDS011;14785;52.556;13.430;2024-03-02T07:34:35;110.53;;;88.70;;
27293;SDS011;14785;52.556;13.430;2024-03-02T07:37:01;115.28;;;90.80;;
27293;SDS011;14785;52.556;13.430;2024-03-02T07:39:26;109.10;;;88.30;;
27293;SDS011;14785;52.556;13.430;2024-03-02T07:41:52;115.18;;;95.43;;
27293;SDS011;14785;52.556;13.430;2024-03-02T07:44:18;122.63;;;97.40;;
27293;SDS011;14785;52.556;13.430;2024-03-02T07:46:47;121.65;;;98.30;;
27293;SDS011;14785;52.556;13.430;2024-03-02T07:49:15;119.15;;;95.80;;
27293;SDS011;14785;52.556;13.430;2024-03-02T07:51:41;128.65;;;99.45;;
27293;SDS011;14785;52.556;13.430;2024-03-02T07:54:06;119.20;;;97.20;;
27293;SDS011;14785;52.556;13.430;2024-03-02T07:56:32;118.80;;;95.77;;
27293;SDS011;14785;52.556;13.430;2024-03-02T07:58:58;121.55;;;96.22;;
27293;SDS011;14785;52.556;13.430;2024-03-02T08:01:27;115.97;;;92.75;;
27293;SDS011;14785;52.556;13.430;2024-03-02T08:03:57;108.05;;;82.90;;
27293;SDS011;14785;52.556;13.430;2024-03-02T08:06:27;115.00;;;86.65;;
27293;SDS011;14785;52.556;13.430;2024-03-02T08:08:53;113.82;;;87.25;;
27293;SDS011;14785;52.556;13.430;2024-03-02T08:11:21;100.80;;;80.63;;
27293;SDS011;14785;52.556;13.430;2024-03-02T08:13:48;116.25;;;86.47;;
27293;SDS011;14785;52.556;13.430;2024-03-02T08:16:15;109.47;;;85.40;;
27293;SDS011;14785;52.556;13.430;2024-03-02T08:18:45;118.38;;;92.40;;
27293;SDS011;14785;52.556;13.430;2024-03-02T08:21:11;105.97;;;80.93;;
27293;SDS011;14785;52.556;13.430;2024-03-02T08:26:03;109.32;;;87.43;;
27293;SDS011;14785;52.556;13.430;2024-03-02T08:28:29;107.70;;;81.28;;
27293;SDS011;14785;52.556;13.430;2024-03-02T08:30:54;116.33;;;86.43;;
27293;SDS011;14785;52.556;13.430;2024-03-02T08:33:20;113.07;;;86.97;;
27293;SDS011;14785;52.556;13.430;2024-03-02T08:35:45;107.23;;;80.70;;
27293;SDS011;14785;52.556;13.430;2024-03-02T08:38:11;101.93;;;80.07;;
27293;SDS011;14785;52.556;13.430;2024-03-02T08:40:37;112.78;;;88.85;;
27293;SDS011;14785;52.556;13.430;2024-03-02T08:43:02;113.47;;;89.33;;
27293;SDS011;14785;52.556;13.430;2024-03-02T08:45:28;102.10;;;81.03;;
27293;SDS011;14785;52.556;13.430;2024-03-02T08:47:54;100.43;;;73.87;;
27293;SDS011;14785;52.556;13.430;2024-03-02T08:50:19;107.17;;;77.97;;
27293;SDS011;14785;52.556;13.430;2024-03-02T08:52:45;111.97;;;89.17;;
27293;SDS011;14785;52.556;13.430;2024-03-02T08:55:10;97.17;;;80.20;;
27293;SDS011;14785;52.556;13.430;2024-03-02T08:57:36;99.85;;;79.50;;
27293;SDS011;14785;52.556;13.430;2024-03-02T09:00:01;102.70;;;81.93;;
27293;SDS011;14785;52.556;13.430;2024-03-02T09:02:28;94.15;;;70.03;;
27293;SDS011;14785;52.556;13.430;2024-03-02T09:04:53;90.37;;;71.10;;
27293;SDS011;14785;52.556;13.430;2024-03-02T09:07:19;97.83;;;73.13;;
27293;SDS011;14785;52.556;13.430;2024-03-02T09:09:44;95.83;;;69.13;;
27293;SDS011;14785;52.556;13.430;2024-03-02T09:12:10;98.33;;;71.87;;
27293;SDS011;14785;52.556;13.430;2024-03-02T09:14:36;99.55;;;75.07;;
27293;SDS011;14785;52.556;13.430;2024-03-02T09:17:03;91.75;;;71.90;;
27293;SDS011;14785;52.556;13.430;2024-03-02T09:19:29;96.72;;;71.40;;
27293;SDS011;14785;52.556;13.430;2024-03-02T09:21:55;87.27;;;67.47;;
27293;SDS011;14785;52.556;13.430;2024-03-02T09:24:21;93.00;;;71.05;;
27293;SDS011;14785;52.556;13.430;2024-03-02T09:26:46;94.63;;;70.80;;
27293;SDS011;14785;52.556;13.430;2024-03-02T09:29:12;105.20;;;75.20;;
27293;SDS011;14785;52.556;13.430;2024-03-02T09:31:40;92.50;;;67.87;;
27293;SDS011;14785;52.556;13.430;2024-03-02T09:34:06;96.07;;;70.22;;
27293;SDS011;14785;52.556;13.430;2024-03-02T09:36:32;92.45;;;72.03;;
27293;SDS011;14785;52.556;13.430;2024-03-02T09:38:57;88.90;;;66.33;;
27293;SDS011;14785;52.556;13.430;2024-03-02T09:43:51;100.00;;;74.60;;
27293;SDS011;14785;52.556;13.430;2024-03-02T09:46:16;91.95;;;69.07;;
27293;SDS011;14785;52.556;13.430;2024-03-02T09:48:45;93.78;;;70.40;;
27293;SDS011;14785;52.556;13.430;2024-03-02T09:51:11;94.03;;;76.03;;
27293;SDS011;14785;52.556;13.430;2024-03-02T09:53:39;91.78;;;70.43;;
27293;SDS011;14785;52.556;13.430;2024-03-02T09:56:04;80.60;;;62.80;;
27293;SDS011;14785;52.556;13.430;2024-03-02T09:58:30;89.93;;;66.83;;
27293;SDS011;14785;52.556;13.430;2024-03-02T10:00:56;88.67;;;70.50;;
27293;SDS011;14785;52.556;13.430;2024-03-02T10:03:22;88.57;;;70.63;;
27293;SDS011;14785;52.556;13.430;2024-03-02T10:05:49;82.22;;;65.72;;
27293;SDS011;14785;52.556;13.430;2024-03-02T10:08:15;86.53;;;65.10;;
27293;SDS011;14785;52.556;13.430;2024-03-02T10:10:40;82.60;;;63.90;;
27293;SDS011;14785;52.556;13.430;2024-03-02T10:13:10;82.95;;;63.42;;
27293;SDS011;14785;52.556;13.430;2024-03-02T10:15:36;76.40;;;58.88;;
27293;SDS011;14785;52.556;13.430;2024-03-02T10:18:26;80.95;;;58.75;;
27293;SDS011;14785;52.556;13.430;2024-03-02T10:20:53;79.88;;;58.88;;
27293;SDS011;14785;52.556;13.430;2024-03-02T10:23:19;74.87;;;53.33;;
27293;SDS011;14785;52.556;13.430;2024-03-02T10:25:45;66.57;;;52.72;;
27293;SDS011;14785;52.556;13.430;2024-03-02T10:28:11;76.00;;;54.37;;
27293;SDS011;14785;52.556;13.430;2024-03-02T10:30:36;71.13;;;54.23;;
27293;SDS011;14785;52.556;13.430;2024-03-02T10:33:02;65.93;;;50.90;;
27293;SDS011;14785;52.556;13.430;2024-03-02T10:35:29;76.80;;;59.17;;
27293;SDS011;14785;52.556;13.430;2024-03-02T10:38:01;69.45;;;53.70;;
27293;SDS011;14785;52.556;13.430;2024-03-02T10:40:29;67.63;;;47.80;;
27293;SDS011;14785;52.556;13.430;2024-03-02T10:42:55;60.30;;;46.13;;
27293;SDS011;14785;52.556;13.430;2024-03-02T10:47:50;54.85;;;44.13;;
27293;SDS011;14785;52.556;13.430;2024-03-02T10:52:41;62.92;;;46.42;;
27293;SDS011;14785;52.556;13.430;2024-03-02T10:55:08;55.58;;;41.65;;
27293;SDS011;14785;52.556;13.430;2024-03-02T11:00:16;55.40;;;40.92;;
27293;SDS011;14785;52.556;13.430;2024-03-02T11:02:46;51.65;;;38.97;;
27293;SDS011;14785;52.556;13.430;2024-03-02T11:05:17;53.53;;;41.47;;
27293;SDS011;14785;52.556;13.430;2024-03-02T11:07:50;51.38;;;41.13;;
27293;SDS011;14785;52.556;13.430;2024-03-02T11:10:21;49.00;;;37.47;;
27293;SDS011;14785;52.556;13.430;2024-03-02T11:15:14;45.43;;;37.07;;
27293;SDS011;14785;52.556;13.430;2024-03-02T11:17:44;46.17;;;35.90;;
27293;SDS011;14785;52.556;13.430;2024-03-02T11:20:11;50.47;;;38.63;;
27293;SDS011;14785;52.556;13.430;2024-03-02T11:22:37;46.80;;;36.30;;
27293;SDS011;14785;52.556;13.430;2024-03-02T11:25:03;47.67;;;38.20;;
27293;SDS011;14785;52.556;13.430;2024-03-02T11:32:59;53.75;;;38.55;;
27293;SDS011;14785;52.556;13.430;2024-03-02T11:37:51;45.58;;;36.10;;
27293;SDS011;14785;52.556;13.430;2024-03-02T11:40:23;43.63;;;32.95;;
27293;SDS011;14785;52.556;13.430;2024-03-02T11:42:50;44.30;;;32.97;;
27293;SDS011;14785;52.556;13.430;2024-03-02T11:45:22;43.30;;;33.27;;
27293;SDS011;14785;52.556;13.430;2024-03-02T11:47:55;43.25;;;31.83;;
27293;SDS011;14785;52.556;13.430;2024-03-02T11:52:58;41.42;;;32.65;;
27293;SDS011;14785;52.556;13.430;2024-03-02T11:55:25;44.63;;;35.03;;
27293;SDS011;14785;52.556;13.430;2024-03-02T11:57:54;44.50;;;34.90;;
27293;SDS011;14785;52.556;13.430;2024-03-02T12:00:20;44.30;;;32.10;;
27293;SDS011;14785;52.556;13.430;2024-03-02T12:02:46;48.08;;;35.10;;
27293;SDS011;14785;52.556;13.430;2024-03-02T12:05:26;43.03;;;33.78;;
27293;SDS011;14785;52.556;13.430;2024-03-02T12:07:59;43.67;;;34.80;;
27293;SDS011;14785;52.556;13.430;2024-03-02T12:10:41;46.75;;;37.28;;
27293;SDS011;14785;52.556;13.430;2024-03-02T12:13:20;43.30;;;32.80;;
27293;SDS011;14785;52.556;13.430;2024-03-02T12:15:45;45.80;;;36.57;;
27293;SDS011;14785;52.556;13.430;2024-03-02T12:18:11;45.73;;;32.77;;
27293;SDS011;14785;52.556;13.430;2024-03-02T12:23:04;39.97;;;32.23;;
27293;SDS011;14785;52.556;13.430;2024-03-02T12:25:30;47.15;;;34.67;;
27293;SDS011;14785;52.556;13.430;2024-03-02T12:27:57;44.65;;;35.25;;
27293;SDS011;14785;52.556;13.430;2024-03-02T12:30:26;38.17;;;31.65;;
27293;SDS011;14785;52.556;13.430;2024-03-02T12:32:55;27.83;;;23.08;;
27293;SDS011;14785;52.556;13.430;2024-03-02T12:35:21;33.03;;;24.70;;
27293;SDS011;14785;52.556;13.430;2024-03-02T12:37:51;34.67;;;27.60;;
27293;SDS011;14785;52.556;13.430;2024-03-02T12:40:17;33.25;;;26.08;;
27293;SDS011;14785;52.556;13.430;2024-03-02T12:42:44;32.28;;;24.25;;
27293;SDS011;14785;52.556;13.430;2024-03-02T12:45:11;28.90;;;23.45;;
27293;SDS011;14785;52.556;13.430;2024-03-02T12:47:37;37.08;;;29.90;;
27293;SDS011;14785;52.556;13.430;2024-03-02T12:50:04;36.20;;;28.70;;
27293;SDS011;14785;52.556;13.430;2024-03-02T12:52:30;35.63;;;28.20;;
27293;SDS011;14785;52.556;13.430;2024-03-02T12:54:57;34.75;;;27.98;;
27293;SDS011;14785;52.556;13.430;2024-03-02T12:57:30;37.40;;;27.20;;
27293;SDS011;14785;52.556;13.430;2024-03-02T13:00:02;34.65;;;28.02;;
27293;SDS011;14785;52.556;13.430;2024-03-02T13:02:34;38.13;;;27.27;;
27293;SDS011;14785;52.556;13.430;2024-03-02T13:05:00;32.83;;;24.60;;
27293;SDS011;14785;52.556;13.430;2024-03-02T13:07:27;30.27;;;25.13;;
27293;SDS011;14785;52.556;13.430;2024-03-02T13:09:54;31.83;;;24.73;;
27293;SDS011;14785;52.556;13.430;2024-03-02T13:12:22;27.67;;;22.27;;
27293;SDS011;14785;52.556;13.430;2024-03-02T13:14:50;28.98;;;23.38;;
27293;SDS011;14785;52.556;13.430;2024-03-02T13:17:17;31.77;;;23.58;;
27293;SDS011;14785;52.556;13.430;2024-03-02T13:19:50;25.85;;;22.70;;
27293;SDS011;14785;52.556;13.430;2024-03-02T13:22:24;30.98;;;23.98;;
27293;SDS011;14785;52.556;13.430;2024-03-02T13:24:50;31.80;;;25.55;;
27293;SDS011;14785;52.556;13.430;2024-03-02T13:27:16;28.92;;;24.13;;
27293;SDS011;14785;52.556;13.430;2024-03-02T13:29:44;28.02;;;22.70;;
27293;SDS011;14785;52.556;13.430;2024-03-02T13:32:13;30.48;;;22.40;;
27293;SDS011;14785;52.556;13.430;2024-03-02T13:34:39;26.23;;;20.90;;
27293;SDS011;14785;52.556;13.430;2024-03-02T13:37:04;26.63;;;20.63;;
27293;SDS011;14785;52.556;13.430;2024-03-02T13:39:31;24.60;;;20.33;;
27293;SDS011;14785;52.556;13.430;2024-03-02T13:41:59;27.92;;;20.00;;
27293;SDS011;14785;52.556;13.430;2024-03-02T13:44:30;25.35;;;21.00;;
27293;SDS011;14785;52.556;13.430;2024-03-02T13:46:56;24.35;;;19.65;;
27293;SDS011;14785;52.556;13.430;2024-03-02T13:49:23;29.90;;;23.48;;
27293;SDS011;14785;52.556;13.430;2024-03-02T13:52:15;28.48;;;22.75;;
27293;SDS011;14785;52.556;13.430;2024-03-02T13:57:07;26.33;;;20.70;;
27293;SDS011;14785;52.556;13.430;2024-03-02T13:59:34;28.70;;;21.20;;
27293;SDS011;14785;52.556;13.430;2024-03-02T14:02:00;26.60;;;21.10;;
27293;SDS011;14785;52.556;13.430;2024-03-02T14:04:26;25.25;;;21.10;;
27293;SDS011;14785;52.556;13.430;2024-03-02T14:06:52;24.07;;;19.50;;
27293;SDS011;14785;52.556;13.430;2024-03-02T14:09:18;23.35;;;19.10;;
27293;SDS011;14785;52.556;13.430;2024-03-02T14:11:45;26.73;;;20.60;;
27293;SDS011;14785;52.556;13.430;2024-03-02T14:14:12;23.37;;;20.20;;
27293;SDS011;14785;52.556;13.430;2024-03-02T14:16:38;23.20;;;18.45;;
27293;SDS011;14785;52.556;13.430;2024-03-02T14:19:03;24.10;;;19.70;;
27293;SDS011;14785;52.556;13.430;2024-03-02T14:21:31;24.40;;;19.15;;
27293;SDS011;14785;52.556;13.430;2024-03-02T14:23:56;21.43;;;18.37;;
27293;SDS011;14785;52.556;13.430;2024-03-02T14:26:22;21.33;;;16.97;;
27293;SDS011;14785;52.556;13.430;2024-03-02T14:28:47;20.87;;;17.17;;
27293;SDS011;14785;52.556;13.430;2024-03-02T14:31:14;21.95;;;17.70;;
27293;SDS011;14785;52.556;13.430;2024-03-02T14:33:42;26.17;;;19.55;;
27293;SDS011;14785;52.556;13.430;2024-03-02T14:36:07;24.13;;;18.77;;
27293;SDS011;14785;52.556;13.430;2024-03-02T14:38:33;21.47;;;18.77;;
27293;SDS011;14785;52.556;13.430;2024-03-02T14:40:58;19.50;;;16.23;;
27293;SDS011;14785;52.556;13.430;2024-03-02T14:43:24;24.30;;;18.70;;
27293;SDS011;14785;52.556;13.430;2024-03-02T14:45:49;20.33;;;15.97;;
27293;SDS011;14785;52.556;13.430;2024-03-02T14:48:15;24.80;;;18.98;;
27293;SDS011;14785;52.556;13.430;2024-03-02T14:50:41;22.67;;;19.33;;
27293;SDS011;14785;52.556;13.430;2024-03-02T14:53:08;25.40;;;19.38;;